createdAt,value
2018-03-28T00:00:29.484Z,10.36
2018-03-28T00:02:57.042Z,10.27
2018-03-28T00:05:25.294Z,10.43
2018-03-28T00:07:53.143Z,10.54
2018-03-28T00:10:20.721Z,10.39
2018-03-28T00:12:49.314Z,10.46
2018-03-28T00:15:17.205Z,10.23
2018-03-28T00:17:44.975Z,9.87
2018-03-28T00:20:13.402Z,9.74
2018-03-28T00:22:41.363Z,9.86
2018-03-28T00:25:09.678Z,9.83
2018-03-28T00:27:37.405Z,9.90
2018-03-28T00:30:05.012Z,9.95
2018-03-28T00:32:32.567Z,10.14
2018-03-28T00:35:00.558Z,10.00
2018-03-28T00:37:28.106Z,9.97
2018-03-28T00:39:55.704Z,9.92
2018-03-28T00:42:23.276Z,9.89
2018-03-28T00:44:51.961Z,10.05
2018-03-28T00:47:19.507Z,10.23
2018-03-28T00:49:47.106Z,10.16
2018-03-28T00:52:14.674Z,10.12
2018-03-28T00:54:42.511Z,9.89
2018-03-28T00:57:10.084Z,9.60
2018-03-28T00:59:37.685Z,9.45
2018-03-28T01:02:05.240Z,9.36
2018-03-28T01:04:33.682Z,9.53
2018-03-28T01:07:01.252Z,9.82
2018-03-28T01:09:29.425Z,10.06
2018-03-28T01:11:57.077Z,10.08
2018-03-28T01:14:24.602Z,9.89
2018-03-28T01:16:52.196Z,9.72
2018-03-28T01:19:19.798Z,9.61
2018-03-28T01:21:47.399Z,9.52
2018-03-28T01:24:14.943Z,9.66
2018-03-28T01:26:42.508Z,9.75
2018-03-28T01:29:10.086Z,9.81
2018-03-28T01:31:37.670Z,9.86
2018-03-28T01:34:05.268Z,10.06
2018-03-28T01:36:32.819Z,10.24
2018-03-28T01:39:00.388Z,10.44
2018-03-28T01:41:27.951Z,10.60
2018-03-28T01:43:55.555Z,10.73
2018-03-28T01:46:23.159Z,10.88
2018-03-28T01:48:50.754Z,10.93
2018-03-28T01:51:18.299Z,10.98
2018-03-28T01:53:45.901Z,11.00
2018-03-28T01:56:13.508Z,10.93
2018-03-28T01:58:41.103Z,10.87
2018-03-28T02:01:08.889Z,10.85
2018-03-28T02:03:36.494Z,10.51
2018-03-28T02:06:04.049Z,10.46
2018-03-28T02:08:31.599Z,10.46
2018-03-28T02:10:59.196Z,10.48
2018-03-28T02:13:26.756Z,10.63
2018-03-28T02:15:54.361Z,10.79
2018-03-28T02:18:22.007Z,10.89
2018-03-28T02:20:49.639Z,10.96
2018-03-28T02:23:17.201Z,11.05
2018-03-28T02:25:44.795Z,11.10
2018-03-28T02:28:12.385Z,11.19
2018-03-28T02:30:39.979Z,11.26
2018-03-28T02:33:07.540Z,11.34
2018-03-28T02:35:35.136Z,11.38
2018-03-28T02:38:02.700Z,11.39
2018-03-28T02:40:30.292Z,11.32
2018-03-28T02:42:58.566Z,11.21
2018-03-28T02:45:26.120Z,11.18
2018-03-28T02:47:53.712Z,11.16
2018-03-28T02:50:21.274Z,10.84
2018-03-28T02:52:48.869Z,10.63
2018-03-28T02:55:16.435Z,10.38
2018-03-28T02:57:44.045Z,10.43
2018-03-28T03:00:11.639Z,10.41
2018-03-28T03:02:39.231Z,10.50
2018-03-28T03:05:06.834Z,10.23
2018-03-28T03:07:34.393Z,9.95
2018-03-28T03:10:02.166Z,9.73
2018-03-28T03:12:30.074Z,9.69
2018-03-28T03:14:57.663Z,9.83
2018-03-28T03:17:25.516Z,10.08
2018-03-28T03:19:53.085Z,10.22
2018-03-28T03:22:20.697Z,10.32
2018-03-28T03:24:48.272Z,10.45
2018-03-28T03:27:15.867Z,10.55
2018-03-28T03:29:43.419Z,10.33
2018-03-28T03:32:11.036Z,10.06
2018-03-28T03:34:38.646Z,9.98
2018-03-28T03:37:06.244Z,10.07
2018-03-28T03:39:33.784Z,9.98
2018-03-28T03:42:01.747Z,9.85
2018-03-28T03:44:29.481Z,9.92
2018-03-28T03:46:57.074Z,9.82
2018-03-28T03:49:24.690Z,9.85
2018-03-28T03:51:52.296Z,9.85
2018-03-28T03:54:19.879Z,9.86
2018-03-28T03:56:47.436Z,9.94
2018-03-28T03:59:15.033Z,9.93
2018-03-28T04:01:42.588Z,10.11
2018-03-28T04:04:10.188Z,10.24
2018-03-28T04:06:38.194Z,10.27
2018-03-28T04:09:06.424Z,10.45
2018-03-28T04:11:34.023Z,10.62
2018-03-28T04:14:01.612Z,10.64
2018-03-28T04:16:29.211Z,10.71
2018-03-28T04:18:56.810Z,10.80
2018-03-28T04:21:24.907Z,10.88
2018-03-28T04:23:52.455Z,10.90
2018-03-28T04:26:20.061Z,10.88
2018-03-28T04:28:47.621Z,10.98
2018-03-28T04:31:15.912Z,11.06
2018-03-28T04:33:43.506Z,11.06
2018-03-28T04:36:11.064Z,11.02
2018-03-28T04:38:38.654Z,10.97
2018-03-28T04:41:06.342Z,10.84
2018-03-28T04:43:33.943Z,10.23
2018-03-28T04:46:01.488Z,9.88
2018-03-28T04:48:29.131Z,9.64
2018-03-28T04:50:56.717Z,9.51
2018-03-28T04:53:24.280Z,9.34
2018-03-28T04:55:51.953Z,9.29
2018-03-28T04:58:19.540Z,9.32
2018-03-28T05:00:47.118Z,9.05
2018-03-28T05:03:15.459Z,8.94
2018-03-28T05:05:43.429Z,9.03
2018-03-28T05:08:11.025Z,9.17
2018-03-28T05:10:38.901Z,9.04
2018-03-28T05:13:06.817Z,8.94
2018-03-28T05:15:35.127Z,8.85
2018-03-28T05:18:03.992Z,8.83
2018-03-28T05:20:31.566Z,8.83
2018-03-28T05:22:59.188Z,8.96
2018-03-28T05:25:26.761Z,9.18
2018-03-28T05:27:55.088Z,9.16
2018-03-28T05:30:22.658Z,9.11
2018-03-28T05:32:51.753Z,9.18
2018-03-28T05:35:19.336Z,9.24
2018-03-28T05:37:46.892Z,9.33
2018-03-28T05:40:14.519Z,9.27
2018-03-28T05:42:42.540Z,9.20
2018-03-28T05:45:10.139Z,9.30
2018-03-28T05:47:38.500Z,9.42
2018-03-28T05:50:08.441Z,9.61
2018-03-28T05:52:35.996Z,9.73
2018-03-28T05:55:03.990Z,9.64
2018-03-28T05:57:31.608Z,9.65
2018-03-28T05:59:59.172Z,9.61
2018-03-28T06:02:26.788Z,9.65
2018-03-28T06:04:55.307Z,9.53
2018-03-28T06:07:23.017Z,9.58
2018-03-28T06:09:50.767Z,9.58
2018-03-28T06:12:18.478Z,9.71
2018-03-28T06:14:47.168Z,9.90
2018-03-28T06:17:14.727Z,9.95
2018-03-28T06:19:42.708Z,9.74
2018-03-28T06:22:10.316Z,9.75
2018-03-28T06:24:38.025Z,9.83
2018-03-28T06:27:05.624Z,10.10
2018-03-28T06:29:33.436Z,10.30
2018-03-28T06:32:01.983Z,10.50
2018-03-28T06:34:29.619Z,10.59
2018-03-28T06:36:57.177Z,10.73
2018-03-28T06:39:24.729Z,10.95
2018-03-28T06:41:52.352Z,11.07
2018-03-28T06:44:19.918Z,11.19
2018-03-28T06:46:47.581Z,11.32
2018-03-28T06:49:15.156Z,11.36
2018-03-28T06:51:42.790Z,11.38
2018-03-28T06:54:10.363Z,11.42
2018-03-28T06:56:38.680Z,11.42
2018-03-28T06:59:06.331Z,11.56
2018-03-28T07:01:33.887Z,11.58
2018-03-28T07:04:01.489Z,11.61
2018-03-28T07:06:29.110Z,11.59
2018-03-28T07:08:56.666Z,11.63
2018-03-28T07:11:24.543Z,11.70
2018-03-28T07:13:52.146Z,11.67
2018-03-28T07:16:19.723Z,11.79
2018-03-28T07:18:48.690Z,11.87
2018-03-28T07:21:17.203Z,12.04
2018-03-28T07:23:44.758Z,12.04
2018-03-28T07:26:12.492Z,11.98
2018-03-28T07:28:40.313Z,12.05
2018-03-28T07:31:08.664Z,12.08
2018-03-28T07:33:36.275Z,12.25
2018-03-28T07:36:04.014Z,12.39
2018-03-28T07:38:32.405Z,12.38
2018-03-28T07:41:00.948Z,12.33
2018-03-28T07:43:28.515Z,12.34
2018-03-28T07:45:56.121Z,12.37
2018-03-28T07:48:24.580Z,12.34
2018-03-28T07:50:52.180Z,12.22
2018-03-28T07:53:19.744Z,12.32
2018-03-28T07:55:47.376Z,12.38
2018-03-28T07:58:16.675Z,12.36
2018-03-28T08:00:44.401Z,12.32
2018-03-28T08:03:11.999Z,12.26
2018-03-28T08:05:39.651Z,12.30
2018-03-28T08:08:07.269Z,12.30
2018-03-28T08:10:34.857Z,12.31
2018-03-28T08:13:02.427Z,12.30
2018-03-28T08:15:30.078Z,12.45
2018-03-28T08:17:58.591Z,12.37
2018-03-28T08:20:26.208Z,12.36
2018-03-28T08:22:53.839Z,12.31
2018-03-28T08:25:21.376Z,12.28
2018-03-28T08:27:50.641Z,12.13
2018-03-28T08:30:18.263Z,11.99
2018-03-28T08:32:45.973Z,12.02
2018-03-28T08:35:13.928Z,12.08
2018-03-28T08:37:42.210Z,12.19
2018-03-28T08:40:09.776Z,12.23
2018-03-28T08:42:37.383Z,12.27
2018-03-28T08:45:06.033Z,12.36
2018-03-28T08:47:33.949Z,12.41
2018-03-28T08:50:06.453Z,12.55
2018-03-28T08:52:34.711Z,12.61
2018-03-28T08:55:02.317Z,12.61
2018-03-28T08:57:29.915Z,12.62
2018-03-28T08:59:57.483Z,12.65
2018-03-28T09:02:26.945Z,12.55
2018-03-28T09:04:54.545Z,12.45
2018-03-28T09:07:23.837Z,12.39
2018-03-28T09:09:51.421Z,12.44
2018-03-28T09:12:19.963Z,12.53
2018-03-28T09:14:47.529Z,12.58
2018-03-28T09:17:15.853Z,12.54
2018-03-28T09:19:43.613Z,12.32
2018-03-28T09:22:11.173Z,12.34
2018-03-28T09:24:38.833Z,12.39
2018-03-28T09:27:06.408Z,12.37
2018-03-28T09:29:34.007Z,12.44
2018-03-28T09:32:01.592Z,12.44
2018-03-28T09:34:29.213Z,12.38
2018-03-28T09:36:56.841Z,12.43
2018-03-28T09:39:24.477Z,12.42
2018-03-28T09:41:52.076Z,12.34
2018-03-28T09:44:20.643Z,12.37
2018-03-28T09:46:48.969Z,12.41
2018-03-28T09:49:17.025Z,12.44
2018-03-28T09:51:44.632Z,12.39
2018-03-28T09:54:12.196Z,12.36
2018-03-28T09:56:39.832Z,12.37
2018-03-28T09:59:07.522Z,12.50
2018-03-28T10:01:35.157Z,12.54
2018-03-28T10:04:08.698Z,12.64
2018-03-28T10:06:36.249Z,12.68
2018-03-28T10:09:05.066Z,12.60
2018-03-28T10:11:32.667Z,12.74
2018-03-28T10:14:00.247Z,12.78
2018-03-28T10:16:27.835Z,12.91
2018-03-28T10:18:56.093Z,12.96
2018-03-28T10:21:23.848Z,12.99
2018-03-28T10:23:51.447Z,13.03
2018-03-28T10:26:19.117Z,13.07
2018-03-28T10:28:47.181Z,13.26
2018-03-28T10:31:14.739Z,13.40
2018-03-28T10:33:42.324Z,13.45
2018-03-28T10:36:10.185Z,13.47
2018-03-28T10:38:37.775Z,13.51
2018-03-28T10:41:05.371Z,13.54
2018-03-28T10:43:32.936Z,13.58
2018-03-28T10:46:00.545Z,13.66
2018-03-28T10:48:28.291Z,13.74
2018-03-28T10:50:55.911Z,13.88
2018-03-28T10:53:23.505Z,13.94
2018-03-28T10:55:52.010Z,13.95
2018-03-28T10:58:20.352Z,13.97
2018-03-28T11:00:47.965Z,13.99
2018-03-28T11:03:15.543Z,13.99
2018-03-28T11:05:44.068Z,13.99
2018-03-28T11:08:11.624Z,14.10
2018-03-28T11:10:39.242Z,14.20
2018-03-28T11:13:06.920Z,14.26
2018-03-28T11:15:34.544Z,14.28
2018-03-28T11:18:03.046Z,14.27
2018-03-28T11:20:30.805Z,14.28
2018-03-28T11:22:59.136Z,14.30
2018-03-28T11:25:26.746Z,14.30
2018-03-28T11:27:54.353Z,14.29
2018-03-28T11:30:22.807Z,14.39
2018-03-28T11:32:50.445Z,14.41
2018-03-28T11:35:18.293Z,14.53
2018-03-28T11:37:46.039Z,14.59
2018-03-28T11:40:13.661Z,14.60
2018-03-28T11:42:41.283Z,14.71
2018-03-28T11:45:08.932Z,14.72
2018-03-28T11:47:36.597Z,14.74
2018-03-28T11:50:04.173Z,14.73
2018-03-28T11:52:31.995Z,14.78
2018-03-28T11:55:00.710Z,14.83
2018-03-28T11:57:28.307Z,14.85
2018-03-28T11:59:55.907Z,14.83
2018-03-28T12:02:23.458Z,14.83
2018-03-28T12:04:51.072Z,14.76
2018-03-28T12:07:18.624Z,14.73
2018-03-28T12:09:46.223Z,14.75
2018-03-28T12:12:13.815Z,14.76
2018-03-28T12:14:41.432Z,14.76
2018-03-28T12:17:09.039Z,14.74
2018-03-28T12:19:36.825Z,14.73
2018-03-28T12:22:04.765Z,14.71
2018-03-28T12:24:33.301Z,14.70
2018-03-28T12:27:03.873Z,14.69
2018-03-28T12:29:33.739Z,14.67
2018-03-28T12:32:01.892Z,14.66
2018-03-28T12:34:30.779Z,14.78
2018-03-28T12:36:58.836Z,14.84
2018-03-28T12:39:26.612Z,14.84
2018-03-28T12:41:54.176Z,14.94
2018-03-28T12:44:23.289Z,14.96
2018-03-28T12:46:50.853Z,14.91
2018-03-28T12:49:18.444Z,14.93
2018-03-28T12:51:46.360Z,14.92
2018-03-28T12:54:14.709Z,14.89
2018-03-28T12:56:43.416Z,14.87
2018-03-28T12:59:12.349Z,14.82
2018-03-28T13:01:40.895Z,14.80
2018-03-28T13:04:09.296Z,14.77
2018-03-28T13:06:38.213Z,14.77
2018-03-28T13:09:06.051Z,14.77
2018-03-28T13:11:33.614Z,14.74
2018-03-28T13:14:01.219Z,14.70
2018-03-28T13:16:28.833Z,14.68
2018-03-28T13:18:56.432Z,14.67
2018-03-28T13:21:24.365Z,14.69
2018-03-28T13:23:51.958Z,14.65
2018-03-28T13:26:19.588Z,14.66
2018-03-28T13:28:47.753Z,14.67
2018-03-28T13:31:15.455Z,14.66
2018-03-28T13:33:44.705Z,14.67
2018-03-28T13:36:14.289Z,14.66
2018-03-28T13:38:41.864Z,14.64
2018-03-28T13:41:09.772Z,14.65
2018-03-28T13:43:39.052Z,14.65
2018-03-28T13:46:06.938Z,14.66
2018-03-28T13:48:34.544Z,14.66
2018-03-28T13:51:02.743Z,14.64
2018-03-28T13:53:30.375Z,14.59
2018-03-28T13:55:58.042Z,14.57
2018-03-28T13:58:25.592Z,14.54
2018-03-28T14:00:53.196Z,14.50
2018-03-28T14:03:20.748Z,14.50
2018-03-28T14:05:48.825Z,14.50
2018-03-28T14:08:16.385Z,14.47
2018-03-28T14:10:44.000Z,14.46
2018-03-28T14:13:11.618Z,14.43
2018-03-28T14:15:39.183Z,14.43
2018-03-28T14:18:06.785Z,14.42
2018-03-28T14:20:34.631Z,14.38
2018-03-28T14:23:02.451Z,14.34
2018-03-28T14:25:30.015Z,14.33
2018-03-28T14:27:59.219Z,14.31
2018-03-28T14:30:26.799Z,14.28
2018-03-28T14:32:54.381Z,14.23
2018-03-28T14:35:21.975Z,14.24
2018-03-28T14:37:50.131Z,14.24
2018-03-28T14:40:17.979Z,14.20
2018-03-28T14:42:54.590Z,14.20
2018-03-28T14:45:13.997Z,14.17
2018-03-28T14:47:41.531Z,14.18
2018-03-28T14:50:10.513Z,14.14
2018-03-28T14:52:38.694Z,14.12
2018-03-28T14:55:07.752Z,14.13
2018-03-28T14:57:36.547Z,14.14
2018-03-28T15:00:05.115Z,14.16
2018-03-28T15:02:32.751Z,14.11
2018-03-28T15:05:00.703Z,14.09
2018-03-28T15:07:28.300Z,14.08
2018-03-28T15:09:55.900Z,14.10
2018-03-28T15:12:24.185Z,14.13
2018-03-28T15:14:52.953Z,14.12
2018-03-28T15:17:21.169Z,14.10
2018-03-28T15:19:49.728Z,14.09
2018-03-28T15:22:17.327Z,14.06
2018-03-28T15:24:44.892Z,14.06
2018-03-28T15:27:12.479Z,14.06
2018-03-28T15:29:40.034Z,14.06
2018-03-28T15:32:07.926Z,14.05
2018-03-28T15:34:36.453Z,14.01
2018-03-28T15:37:04.340Z,14.02
2018-03-28T15:39:31.956Z,14.02
2018-03-28T15:41:59.512Z,14.00
2018-03-28T15:44:27.398Z,14.00
2018-03-28T15:46:55.092Z,13.98
2018-03-28T15:49:22.696Z,13.96
2018-03-28T15:51:50.713Z,13.96
2018-03-28T15:54:18.327Z,13.93
2018-03-28T15:56:45.894Z,13.92
2018-03-28T15:59:13.910Z,13.89
2018-03-28T16:01:42.382Z,13.86
2018-03-28T16:04:10.209Z,13.83
2018-03-28T16:06:39.231Z,13.81
2018-03-28T16:09:07.433Z,13.79
2018-03-28T16:11:35.344Z,13.77
2018-03-28T16:14:03.446Z,13.75
2018-03-28T16:16:31.550Z,13.72
2018-03-28T16:18:59.496Z,13.71
2018-03-28T16:21:27.427Z,13.66
2018-03-28T16:23:56.493Z,13.63
2018-03-28T16:26:26.361Z,13.62
2018-03-28T16:28:54.652Z,13.60
2018-03-28T16:31:23.164Z,13.58
2018-03-28T16:33:51.643Z,13.55
2018-03-28T16:36:20.380Z,13.54
2018-03-28T16:38:49.767Z,13.50
2018-03-28T16:41:18.748Z,13.46
2018-03-28T16:43:47.012Z,13.43
2018-03-28T16:46:16.505Z,13.39
2018-03-28T16:48:44.884Z,13.36
2018-03-28T16:51:14.124Z,13.33
2018-03-28T16:53:42.820Z,13.33
2018-03-28T16:56:11.590Z,13.34
2018-03-28T16:58:40.241Z,13.19
2018-03-28T17:01:08.535Z,12.50
2018-03-28T17:03:41.333Z,11.93
2018-03-28T17:06:11.214Z,11.49
2018-03-28T17:08:40.036Z,11.25
2018-03-28T17:11:09.049Z,11.03
2018-03-28T17:13:37.498Z,10.99
2018-03-28T17:16:06.524Z,10.86
2018-03-28T17:18:35.248Z,10.74
2018-03-28T17:21:03.939Z,10.76
2018-03-28T17:23:32.884Z,10.52
2018-03-28T17:26:01.301Z,10.41
2018-03-28T17:28:31.219Z,10.44
2018-03-28T17:30:59.473Z,10.44
2018-03-28T17:33:27.981Z,10.47
2018-03-28T17:35:56.291Z,10.48
2018-03-28T17:38:29.035Z,10.58
2018-03-28T17:40:57.669Z,10.62
2018-03-28T17:43:26.772Z,10.58
2018-03-28T17:45:55.018Z,10.58
2018-03-28T17:48:23.887Z,10.80
2018-03-28T17:50:53.330Z,10.85
2018-03-28T17:53:22.489Z,10.86
2018-03-28T17:55:50.901Z,11.01
2018-03-28T17:58:19.999Z,11.10
2018-03-28T18:00:49.365Z,11.22
2018-03-28T18:03:17.731Z,11.22
2018-03-28T18:05:47.825Z,11.23
2018-03-28T18:08:18.104Z,11.09
2018-03-28T18:10:46.858Z,10.53
2018-03-28T18:13:17.415Z,9.81
2018-03-28T18:15:45.896Z,9.74
2018-03-28T18:18:15.922Z,9.75
2018-03-28T18:20:44.706Z,9.46
2018-03-28T18:23:12.831Z,9.84
2018-03-28T18:25:42.659Z,10.16
2018-03-28T18:28:13.495Z,10.40
2018-03-28T18:30:42.175Z,10.56
2018-03-28T18:33:10.654Z,10.69
2018-03-28T18:35:39.264Z,10.83
2018-03-28T18:38:07.624Z,10.90
2018-03-28T18:40:36.125Z,10.91
2018-03-28T18:43:04.943Z,10.97
2018-03-28T18:45:33.986Z,10.82
2018-03-28T18:48:02.690Z,10.62
2018-03-28T18:50:31.696Z,9.88
2018-03-28T18:53:00.367Z,9.64
2018-03-28T18:55:28.734Z,9.56
2018-03-28T18:57:57.669Z,9.29
2018-03-28T19:00:27.587Z,9.13
2018-03-28T19:02:57.563Z,9.28
2018-03-28T19:05:26.992Z,9.63
2018-03-28T19:07:55.471Z,9.91
2018-03-28T19:10:25.404Z,10.17
2018-03-28T19:12:54.748Z,10.32
2018-03-28T19:15:24.598Z,10.46
2018-03-28T19:17:54.984Z,10.56
2018-03-28T19:20:23.497Z,10.41
2018-03-28T19:22:51.768Z,9.67
2018-03-28T19:25:21.259Z,9.82
2018-03-28T19:27:52.465Z,10.02
2018-03-28T19:30:20.558Z,10.26
2018-03-28T19:32:48.943Z,10.25
2018-03-28T19:35:17.542Z,9.81
2018-03-28T19:37:46.225Z,9.50
2018-03-28T19:40:15.202Z,9.34
2018-03-28T19:42:43.913Z,9.23
2018-03-28T19:45:12.216Z,9.11
2018-03-28T19:47:41.355Z,9.22
2018-03-28T19:50:10.975Z,9.20
2018-03-28T19:52:39.335Z,8.88
2018-03-28T19:55:07.722Z,8.85
2018-03-28T19:57:36.404Z,8.80
2018-03-28T20:00:04.702Z,8.98
2018-03-28T20:02:33.498Z,9.22
2018-03-28T20:05:02.632Z,9.44
2018-03-28T20:07:31.147Z,9.28
2018-03-28T20:09:59.434Z,8.33
2018-03-28T20:12:27.887Z,7.82
2018-03-28T20:14:56.509Z,7.55
2018-03-28T20:17:24.995Z,7.25
2018-03-28T20:22:21.870Z,7.11
2018-03-28T20:24:51.778Z,6.91
2018-03-28T20:27:19.951Z,6.85
2018-03-28T20:29:48.842Z,6.92
2018-03-28T20:32:17.899Z,7.01
2018-03-28T20:34:47.498Z,6.96
2018-03-28T20:37:16.214Z,6.93
2018-03-28T20:39:45.225Z,7.04
2018-03-28T20:42:14.201Z,7.01
2018-03-28T20:44:44.099Z,7.15
2018-03-28T20:47:13.239Z,7.16
2018-03-28T20:49:42.514Z,6.90
2018-03-28T20:52:10.583Z,6.69
2018-03-28T20:54:40.090Z,6.54
2018-03-28T20:57:10.175Z,6.67
2018-03-28T20:59:38.238Z,6.96
2018-03-28T21:02:06.236Z,6.87
2018-03-28T21:04:35.093Z,7.09
2018-03-28T21:07:04.404Z,6.99
2018-03-28T21:09:32.146Z,7.29
2018-03-28T21:12:00.683Z,7.82
2018-03-28T21:14:30.394Z,8.21
2018-03-28T21:16:58.367Z,8.53
2018-03-28T21:19:25.949Z,8.50
2018-03-28T21:21:53.722Z,8.61
2018-03-28T21:24:21.509Z,8.72
2018-03-28T21:26:49.522Z,8.94
2018-03-28T21:29:17.128Z,9.21
2018-03-28T21:31:44.688Z,9.29
2018-03-28T21:34:12.275Z,9.40
2018-03-28T21:36:40.248Z,9.39
2018-03-28T21:39:08.374Z,9.54
2018-03-28T21:41:35.922Z,9.65
2018-03-28T21:44:03.520Z,9.48
2018-03-28T21:46:31.104Z,8.72
2018-03-28T21:48:58.711Z,7.74
2018-03-28T21:51:26.266Z,7.13
2018-03-28T21:53:55.264Z,7.00
2018-03-28T21:56:22.869Z,7.63
2018-03-28T21:58:50.432Z,8.03
2018-03-28T22:01:17.997Z,8.38
2018-03-28T22:03:46.326Z,8.51
2018-03-28T22:06:13.934Z,8.66
2018-03-28T22:08:41.507Z,8.79
2018-03-28T22:11:09.068Z,8.83
2018-03-28T22:13:36.660Z,8.97
2018-03-28T22:16:04.523Z,9.04
2018-03-28T22:18:32.097Z,8.80
2018-03-28T22:20:59.721Z,8.82
2018-03-28T22:23:27.335Z,8.93
2018-03-28T22:25:54.892Z,9.02
2018-03-28T22:28:22.451Z,8.91
2018-03-28T22:30:50.190Z,8.96
2018-03-28T22:33:17.749Z,9.12
2018-03-28T22:35:45.863Z,9.22
2018-03-28T22:38:13.481Z,9.26
2018-03-28T22:40:41.036Z,9.21
2018-03-28T22:43:09.915Z,9.24
2018-03-28T22:45:37.470Z,9.00
2018-03-28T22:48:05.202Z,8.54
2018-03-28T22:50:32.812Z,8.30
2018-03-28T22:53:00.359Z,8.53
2018-03-28T22:55:27.955Z,8.05
2018-03-28T22:57:55.508Z,7.25
2018-03-28T23:00:23.532Z,6.72
2018-03-28T23:02:51.094Z,6.49
2018-03-28T23:05:18.696Z,6.28
2018-03-28T23:07:46.438Z,6.22
2018-03-28T23:10:14.177Z,6.20
2018-03-28T23:12:41.747Z,6.46
2018-03-28T23:15:11.266Z,6.87
2018-03-28T23:17:38.844Z,6.92
2018-03-28T23:20:06.433Z,6.98
2018-03-28T23:22:38.982Z,6.46
2018-03-28T23:25:06.588Z,6.24
2018-03-28T23:27:34.179Z,5.83
2018-03-28T23:30:01.733Z,5.85
2018-03-28T23:32:29.291Z,6.21
2018-03-28T23:34:56.896Z,6.31
2018-03-28T23:37:24.438Z,6.19
2018-03-28T23:39:52.027Z,6.09
2018-03-28T23:42:19.764Z,6.08
2018-03-28T23:44:47.363Z,6.08
2018-03-28T23:47:14.907Z,5.94
2018-03-28T23:49:42.500Z,5.83
2018-03-28T23:52:10.185Z,6.15
2018-03-28T23:54:37.799Z,6.44
2018-03-28T23:57:05.385Z,6.22
2018-03-28T23:59:32.935Z,5.98
